createdAt,value
2017-09-30T00:02:07.257Z,99.90
2017-09-30T00:04:35.523Z,99.90
2017-09-30T00:07:03.789Z,99.90
2017-09-30T00:09:32.046Z,99.90
2017-09-30T00:12:01.063Z,99.90
2017-09-30T00:14:29.324Z,99.90
2017-09-30T00:16:58.347Z,99.90
2017-09-30T00:19:26.597Z,99.90
2017-09-30T00:21:54.861Z,99.90
2017-09-30T00:24:23.878Z,99.90
2017-09-30T00:26:52.138Z,99.90
2017-09-30T00:29:20.396Z,99.90
2017-09-30T00:31:49.420Z,99.90
2017-09-30T00:34:17.669Z,99.90
2017-09-30T00:36:46.701Z,99.90
2017-09-30T00:39:14.958Z,99.90
2017-09-30T00:41:43.225Z,99.90
2017-09-30T00:44:12.242Z,99.90
2017-09-30T00:46:40.509Z,99.90
2017-09-30T00:49:08.771Z,99.90
2017-09-30T00:51:37.805Z,99.90
2017-09-30T00:54:06.064Z,99.90
2017-09-30T00:56:34.328Z,99.90
2017-09-30T00:59:02.589Z,99.90
2017-09-30T01:01:31.616Z,99.90
2017-09-30T01:03:59.874Z,99.90
2017-09-30T01:06:28.133Z,99.90
2017-09-30T01:08:57.162Z,99.90
2017-09-30T01:11:25.416Z,99.90
2017-09-30T01:13:53.685Z,99.90
2017-09-30T01:16:21.941Z,99.90
2017-09-30T01:18:50.970Z,99.90
2017-09-30T01:21:19.224Z,99.90
2017-09-30T01:23:47.494Z,99.90
2017-09-30T01:26:16.514Z,99.90
2017-09-30T01:28:44.798Z,99.90
2017-09-30T01:31:13.052Z,99.90
2017-09-30T01:33:41.317Z,99.90
2017-09-30T01:36:10.349Z,99.90
2017-09-30T01:38:38.618Z,99.90
2017-09-30T01:41:06.873Z,99.90
2017-09-30T01:43:35.131Z,99.90
2017-09-30T01:46:04.161Z,99.90
2017-09-30T01:48:32.417Z,99.90
2017-09-30T01:51:00.681Z,99.90
2017-09-30T01:53:29.705Z,99.90
2017-09-30T01:55:57.975Z,99.90
2017-09-30T01:58:26.229Z,99.90
2017-09-30T02:00:55.258Z,99.90
2017-09-30T02:03:23.519Z,99.90
2017-09-30T02:05:51.789Z,99.90
2017-09-30T02:08:20.049Z,99.90
2017-09-30T02:10:48.307Z,99.90
2017-09-30T02:13:17.341Z,99.90
2017-09-30T02:15:45.600Z,99.90
2017-09-30T02:18:13.864Z,99.90
2017-09-30T02:20:42.890Z,99.90
2017-09-30T02:23:11.153Z,99.90
2017-09-30T02:25:39.409Z,99.90
2017-09-30T02:28:08.450Z,99.90
2017-09-30T02:30:36.703Z,99.90
2017-09-30T02:33:04.965Z,99.90
2017-09-30T02:35:33.227Z,99.90
2017-09-30T02:38:02.273Z,99.90
2017-09-30T02:40:30.532Z,99.90
2017-09-30T02:42:58.787Z,99.90
2017-09-30T02:45:27.051Z,99.90
2017-09-30T02:47:56.063Z,99.90
2017-09-30T02:50:24.330Z,99.90
2017-09-30T02:52:52.584Z,99.90
2017-09-30T02:55:21.622Z,99.90
2017-09-30T02:57:49.872Z,99.90
2017-09-30T03:00:18.148Z,99.90
2017-09-30T03:02:47.173Z,99.90
2017-09-30T03:05:15.434Z,99.90
2017-09-30T03:07:43.695Z,99.90
2017-09-30T03:10:11.959Z,99.90
2017-09-30T03:12:40.995Z,99.90
2017-09-30T03:15:09.251Z,99.90
2017-09-30T03:17:37.514Z,99.90
2017-09-30T03:20:05.770Z,99.90
2017-09-30T03:22:34.801Z,99.90
2017-09-30T03:25:03.053Z,99.90
2017-09-30T03:27:31.322Z,99.90
2017-09-30T03:30:00.358Z,99.90
2017-09-30T03:32:28.624Z,99.90
2017-09-30T03:34:56.891Z,99.90
2017-09-30T03:37:25.145Z,99.90
2017-09-30T03:39:53.418Z,99.90
2017-09-30T03:42:22.440Z,99.90
2017-09-30T03:44:50.712Z,99.90
2017-09-30T03:47:18.970Z,99.90
2017-09-30T03:49:47.233Z,99.90
2017-09-30T03:52:16.259Z,99.90
2017-09-30T03:54:44.527Z,99.90
2017-09-30T03:57:12.770Z,99.90
2017-09-30T03:59:41.805Z,99.90
2017-09-30T04:02:10.065Z,99.90
2017-09-30T04:04:38.326Z,99.90
2017-09-30T04:07:07.361Z,99.90
2017-09-30T04:09:35.618Z,99.90
2017-09-30T04:12:03.887Z,99.90
2017-09-30T04:14:32.142Z,99.90
2017-09-30T04:17:01.179Z,99.90
2017-09-30T04:19:29.426Z,99.90
2017-09-30T04:21:57.688Z,99.90
2017-09-30T04:24:26.718Z,99.90
2017-09-30T04:26:54.985Z,99.90
2017-09-30T04:29:23.249Z,99.90
2017-09-30T04:31:51.513Z,99.90
2017-09-30T04:34:20.533Z,99.90
2017-09-30T04:36:48.793Z,99.90
2017-09-30T04:39:17.061Z,99.90
2017-09-30T04:41:45.325Z,99.90
2017-09-30T04:44:14.349Z,99.90
2017-09-30T04:46:42.612Z,99.90
2017-09-30T04:49:10.866Z,99.90
2017-09-30T04:51:39.918Z,99.90
2017-09-30T04:54:08.182Z,99.90
2017-09-30T04:56:36.436Z,99.90
2017-09-30T04:59:04.702Z,99.90
2017-09-30T05:01:32.961Z,99.90
2017-09-30T05:04:01.989Z,99.90
2017-09-30T05:06:30.246Z,99.90
2017-09-30T05:08:58.520Z,99.90
2017-09-30T05:11:26.782Z,99.90
2017-09-30T05:13:55.801Z,99.90
2017-09-30T05:16:24.071Z,99.90
2017-09-30T05:18:52.324Z,99.90
2017-09-30T05:21:21.358Z,99.90
2017-09-30T05:23:49.612Z,99.90
2017-09-30T05:26:17.881Z,99.90
2017-09-30T05:28:46.909Z,99.90
2017-09-30T05:31:15.178Z,99.90
2017-09-30T05:33:43.436Z,99.90
2017-09-30T05:36:11.702Z,99.90
2017-09-30T05:38:40.722Z,99.90
2017-09-30T05:41:08.984Z,99.90
2017-09-30T05:43:37.336Z,99.90
2017-09-30T05:46:05.587Z,99.90
2017-09-30T05:48:33.853Z,99.90
2017-09-30T05:51:02.124Z,99.90
2017-09-30T05:53:30.382Z,99.90
2017-09-30T05:55:58.637Z,99.90
2017-09-30T05:58:26.900Z,99.90
2017-09-30T06:00:55.931Z,99.90
2017-09-30T06:03:24.185Z,99.90
2017-09-30T06:05:52.564Z,99.90
2017-09-30T06:08:20.834Z,99.90
2017-09-30T06:10:49.092Z,99.90
2017-09-30T06:13:18.115Z,99.90
2017-09-30T06:15:46.380Z,99.90
2017-09-30T06:18:14.629Z,99.90
2017-09-30T06:20:43.665Z,99.90
2017-09-30T06:23:11.926Z,99.90
2017-09-30T06:25:40.185Z,99.90
2017-09-30T06:28:09.205Z,99.90
2017-09-30T06:30:37.470Z,99.90
2017-09-30T06:33:05.726Z,99.90
2017-09-30T06:35:34.760Z,99.90
2017-09-30T06:38:03.007Z,99.90
2017-09-30T06:40:31.266Z,99.90
2017-09-30T06:43:00.290Z,99.90
2017-09-30T06:45:28.548Z,99.90
2017-09-30T06:47:57.562Z,99.90
2017-09-30T06:50:25.929Z,99.90
2017-09-30T06:52:54.184Z,99.90
2017-09-30T06:55:23.210Z,99.90
2017-09-30T06:57:51.460Z,99.90
2017-09-30T07:00:20.514Z,99.90
2017-09-30T07:02:48.751Z,99.90
2017-09-30T07:05:17.005Z,99.90
2017-09-30T07:07:46.022Z,99.90
2017-09-30T07:10:14.277Z,99.90
2017-09-30T07:12:42.535Z,99.90
2017-09-30T07:15:10.793Z,99.90
2017-09-30T07:17:39.051Z,99.90
2017-09-30T07:20:07.302Z,99.90
2017-09-30T07:22:35.561Z,99.90
2017-09-30T07:25:03.808Z,99.90
2017-09-30T07:27:32.842Z,99.90
2017-09-30T07:30:01.094Z,99.90
2017-09-30T07:32:30.117Z,99.90
2017-09-30T07:34:58.370Z,99.90
2017-09-30T07:37:26.629Z,99.90
2017-09-30T07:39:55.644Z,99.90
2017-09-30T07:42:23.902Z,99.90
2017-09-30T07:44:52.916Z,99.90
2017-09-30T07:47:21.174Z,99.90
2017-09-30T07:49:50.185Z,99.90
2017-09-30T07:52:18.438Z,99.90
2017-09-30T07:54:47.445Z,99.90
2017-09-30T07:57:15.711Z,99.90
2017-09-30T07:59:44.718Z,99.90
2017-09-30T08:02:12.971Z,99.90
2017-09-30T08:04:41.982Z,99.90
2017-09-30T08:07:10.233Z,99.90
2017-09-30T08:09:38.477Z,99.90
2017-09-30T08:12:06.736Z,99.90
2017-09-30T08:14:34.982Z,99.90
2017-09-30T08:17:03.232Z,99.90
2017-09-30T08:19:32.241Z,99.90
2017-09-30T08:22:01.282Z,99.90
2017-09-30T08:24:29.534Z,99.90
2017-09-30T08:26:57.788Z,99.90
2017-09-30T08:29:26.808Z,99.90
2017-09-30T08:31:55.057Z,99.90
2017-09-30T08:34:24.078Z,99.90
2017-09-30T08:36:52.333Z,99.90
2017-09-30T08:39:20.583Z,99.90
2017-09-30T08:41:48.838Z,99.90
2017-09-30T08:44:17.081Z,99.90
2017-09-30T08:46:45.338Z,99.90
2017-09-30T08:49:13.584Z,99.90
2017-09-30T08:51:42.604Z,99.90
2017-09-30T08:54:10.857Z,99.90
2017-09-30T08:56:39.874Z,99.90
2017-09-30T08:59:08.121Z,99.90
2017-09-30T09:01:37.142Z,99.90
2017-09-30T09:04:05.386Z,99.90
2017-09-30T09:06:33.636Z,99.70
2017-09-30T09:09:01.887Z,99.50
2017-09-30T09:11:30.138Z,98.80
2017-09-30T09:13:58.380Z,98.80
2017-09-30T09:16:26.638Z,98.00
2017-09-30T09:18:54.884Z,97.70
2017-09-30T09:21:23.137Z,97.20
2017-09-30T09:23:51.381Z,96.60
2017-09-30T09:26:21.145Z,96.20
2017-09-30T09:28:49.397Z,96.20
2017-09-30T09:31:18.417Z,95.50
2017-09-30T09:33:46.666Z,95.40
2017-09-30T09:36:15.680Z,94.50
2017-09-30T09:38:43.925Z,94.50
2017-09-30T09:41:12.944Z,95.70
2017-09-30T09:43:41.193Z,95.70
2017-09-30T09:46:10.212Z,96.30
2017-09-30T09:48:38.468Z,96.20
2017-09-30T09:51:07.483Z,96.20
2017-09-30T09:53:35.726Z,96.20
2017-09-30T09:56:04.746Z,94.70
2017-09-30T09:58:32.988Z,94.70
2017-09-30T10:01:02.011Z,94.40
2017-09-30T10:03:30.258Z,94.40
2017-09-30T10:05:59.289Z,94.10
2017-09-30T10:08:27.529Z,93.90
2017-09-30T10:10:56.559Z,93.20
2017-09-30T10:13:24.837Z,93.20
2017-09-30T10:15:53.118Z,93.20
2017-09-30T10:18:21.442Z,93.10
2017-09-30T10:20:49.690Z,91.60
2017-09-30T10:23:17.960Z,92.60
2017-09-30T10:25:46.197Z,92.10
2017-09-30T10:28:14.448Z,91.10
2017-09-30T10:30:43.465Z,90.70
2017-09-30T10:33:11.731Z,90.70
2017-09-30T10:35:40.752Z,89.40
2017-09-30T10:38:09.000Z,89.30
2017-09-30T10:40:37.249Z,88.00
2017-09-30T10:43:05.505Z,90.50
2017-09-30T10:45:33.757Z,90.30
2017-09-30T10:48:02.014Z,87.20
2017-09-30T10:50:38.773Z,88.60
2017-09-30T10:53:07.782Z,86.80
2017-09-30T10:55:36.029Z,86.90
2017-09-30T10:58:05.054Z,85.20
2017-09-30T11:00:33.303Z,85.20
2017-09-30T11:03:02.314Z,85.30
2017-09-30T11:05:30.562Z,85.50
2017-09-30T11:07:58.812Z,80.60
2017-09-30T11:10:27.061Z,79.50
2017-09-30T11:12:55.321Z,80.10
2017-09-30T11:15:23.561Z,80.00
2017-09-30T11:17:51.812Z,81.30
2017-09-30T11:20:20.070Z,84.20
2017-09-30T11:22:48.332Z,84.50
2017-09-30T11:25:16.571Z,83.70
2017-09-30T11:27:45.587Z,80.80
2017-09-30T11:30:13.830Z,80.60
2017-09-30T11:32:42.852Z,80.10
2017-09-30T11:35:11.103Z,79.40
2017-09-30T11:37:39.355Z,78.70
2017-09-30T11:40:07.605Z,77.50
2017-09-30T11:42:35.866Z,78.00
2017-09-30T11:45:04.113Z,76.40
2017-09-30T11:47:33.129Z,75.50
2017-09-30T11:50:01.382Z,75.40
2017-09-30T11:52:30.453Z,76.30
2017-09-30T11:54:58.702Z,76.90
2017-09-30T11:57:26.959Z,78.00
2017-09-30T11:59:55.205Z,78.70
2017-09-30T12:02:24.220Z,77.20
2017-09-30T12:04:52.470Z,77.20
2017-09-30T12:07:21.486Z,69.90
2017-09-30T12:09:49.732Z,69.80
2017-09-30T12:12:18.751Z,68.80
2017-09-30T12:14:46.997Z,68.60
2017-09-30T12:17:16.017Z,65.40
2017-09-30T12:19:44.274Z,64.70
2017-09-30T12:22:13.292Z,66.00
2017-09-30T12:24:41.558Z,66.00
2017-09-30T12:27:09.810Z,65.70
2017-09-30T12:29:38.826Z,66.20
2017-09-30T12:32:07.101Z,66.10
2017-09-30T12:34:35.350Z,66.00
2017-09-30T12:37:03.599Z,64.50
2017-09-30T12:39:31.853Z,61.50
2017-09-30T12:42:00.097Z,61.40
2017-09-30T12:44:29.121Z,61.40
2017-09-30T12:46:57.369Z,61.30
2017-09-30T12:49:25.630Z,60.30
2017-09-30T12:51:54.636Z,58.20
2017-09-30T12:54:22.906Z,58.10
2017-09-30T12:56:51.908Z,56.10
2017-09-30T12:59:20.165Z,56.00
2017-09-30T13:01:49.182Z,56.70
2017-09-30T13:04:17.433Z,56.60
2017-09-30T13:06:46.446Z,60.80
2017-09-30T13:09:14.716Z,60.70
2017-09-30T13:11:42.960Z,62.50
2017-09-30T13:14:11.205Z,62.10
2017-09-30T13:16:39.462Z,61.60
2017-09-30T13:19:07.718Z,64.00
2017-09-30T13:21:36.736Z,65.70
2017-09-30T13:24:04.980Z,65.60
2017-09-30T13:26:34.007Z,61.70
2017-09-30T13:29:02.253Z,61.70
2017-09-30T13:31:31.273Z,62.30
2017-09-30T13:33:59.521Z,62.00
2017-09-30T13:36:28.546Z,62.90
2017-09-30T13:38:56.798Z,62.80
2017-09-30T13:41:25.056Z,62.50
2017-09-30T13:43:54.065Z,63.90
2017-09-30T13:46:22.309Z,63.90
2017-09-30T13:48:50.565Z,66.30
2017-09-30T13:51:18.812Z,62.00
2017-09-30T13:53:47.066Z,59.80
2017-09-30T13:56:15.313Z,60.80
2017-09-30T13:58:43.569Z,63.90
2017-09-30T14:01:11.821Z,65.00
2017-09-30T14:03:40.502Z,61.00
2017-09-30T14:06:08.749Z,60.20
2017-09-30T14:08:37.005Z,60.50
2017-09-30T14:11:06.017Z,58.90
2017-09-30T14:13:34.269Z,58.70
2017-09-30T14:16:02.514Z,63.40
2017-09-30T14:18:30.760Z,66.50
2017-09-30T14:20:59.017Z,65.90
2017-09-30T14:23:28.039Z,65.50
2017-09-30T14:25:56.286Z,65.20
2017-09-30T14:28:24.542Z,65.80
2017-09-30T14:30:53.560Z,67.80
2017-09-30T14:33:21.813Z,67.90
2017-09-30T14:35:50.828Z,65.80
2017-09-30T14:38:19.088Z,65.80
2017-09-30T14:40:48.101Z,68.50
2017-09-30T14:43:16.357Z,68.50
2017-09-30T14:45:45.369Z,67.90
2017-09-30T14:48:13.626Z,67.80
2017-09-30T14:50:42.641Z,69.40
2017-09-30T14:53:10.896Z,69.40
2017-09-30T14:55:39.915Z,71.20
2017-09-30T14:58:08.172Z,71.00
2017-09-30T15:00:37.180Z,71.90
2017-09-30T15:03:05.437Z,71.80
2017-09-30T15:05:34.445Z,73.40
2017-09-30T15:08:02.714Z,73.30
2017-09-30T15:10:30.959Z,72.70
2017-09-30T15:12:59.213Z,73.30
2017-09-30T15:15:27.456Z,73.60
2017-09-30T15:17:55.714Z,73.90
2017-09-30T15:20:23.962Z,75.10
2017-09-30T15:22:52.215Z,76.20
2017-09-30T15:25:20.467Z,76.10
2017-09-30T15:27:48.748Z,76.30
2017-09-30T15:30:16.998Z,76.70
2017-09-30T15:32:45.249Z,76.90
2017-09-30T15:35:14.275Z,77.10
2017-09-30T15:37:42.527Z,77.20
2017-09-30T15:40:11.549Z,78.40
2017-09-30T15:42:39.798Z,78.30
2017-09-30T15:45:08.053Z,85.10
2017-09-30T15:47:36.303Z,82.60
2017-09-30T15:50:04.559Z,85.00
2017-09-30T15:52:32.806Z,86.90
2017-09-30T15:55:01.061Z,87.30
2017-09-30T15:57:30.075Z,88.90
2017-09-30T15:59:58.333Z,88.70
2017-09-30T16:02:27.349Z,85.30
2017-09-30T16:04:55.618Z,85.30
2017-09-30T16:07:23.864Z,84.60
2017-09-30T16:09:52.116Z,83.40
2017-09-30T16:12:20.373Z,82.50
2017-09-30T16:14:48.627Z,82.30
2017-09-30T16:17:16.877Z,81.70
2017-09-30T16:19:45.885Z,82.60
2017-09-30T16:22:14.150Z,82.40
2017-09-30T16:24:43.149Z,81.00
2017-09-30T16:27:12.166Z,80.90
2017-09-30T16:29:40.406Z,80.90
2017-09-30T16:32:09.430Z,84.80
2017-09-30T16:34:37.694Z,84.80
2017-09-30T16:37:05.945Z,87.90
2017-09-30T16:39:34.960Z,93.00
2017-09-30T16:42:03.228Z,93.00
2017-09-30T16:44:32.242Z,94.70
2017-09-30T16:47:00.494Z,94.70
2017-09-30T16:49:29.521Z,96.30
2017-09-30T16:51:57.774Z,96.30
2017-09-30T16:54:26.026Z,97.40
2017-09-30T16:56:55.038Z,98.20
2017-09-30T16:59:23.289Z,98.00
2017-09-30T17:01:51.545Z,97.50
2017-09-30T17:04:19.798Z,97.30
2017-09-30T17:06:48.052Z,97.40
2017-09-30T17:09:16.298Z,97.50
2017-09-30T17:11:45.318Z,97.00
2017-09-30T17:14:13.571Z,97.00
2017-09-30T17:16:42.576Z,96.90
2017-09-30T17:19:10.827Z,96.80
2017-09-30T17:21:39.066Z,97.40
2017-09-30T17:24:07.334Z,97.00
2017-09-30T17:26:35.573Z,97.10
2017-09-30T17:29:03.834Z,97.50
2017-09-30T17:31:32.844Z,97.80
2017-09-30T17:34:01.859Z,97.90
2017-09-30T17:36:30.106Z,97.90
2017-09-30T17:38:59.122Z,97.90
2017-09-30T17:41:27.367Z,97.80
2017-09-30T17:43:56.391Z,98.30
2017-09-30T17:46:24.630Z,98.30
2017-09-30T17:48:52.891Z,98.40
2017-09-30T17:51:21.141Z,98.20
2017-09-30T17:53:49.411Z,98.40
2017-09-30T17:56:17.654Z,98.40
2017-09-30T17:58:45.902Z,98.30
2017-09-30T18:01:14.921Z,98.30
2017-09-30T18:03:43.174Z,98.30
2017-09-30T18:06:12.207Z,97.70
2017-09-30T18:08:40.450Z,97.70
2017-09-30T18:11:09.477Z,98.20
2017-09-30T18:13:37.831Z,98.20
2017-09-30T18:16:06.869Z,98.50
2017-09-30T18:18:35.110Z,98.20
2017-09-30T18:21:03.357Z,98.20
2017-09-30T18:23:32.364Z,97.80
2017-09-30T18:26:01.385Z,97.60
2017-09-30T18:28:29.620Z,97.50
2017-09-30T18:30:58.643Z,97.90
2017-09-30T18:33:26.886Z,97.80
2017-09-30T18:35:55.905Z,97.90
2017-09-30T18:38:24.152Z,97.80
2017-09-30T18:40:53.186Z,98.40
2017-09-30T18:43:21.502Z,98.30
2017-09-30T18:45:49.745Z,98.40
2017-09-30T18:48:17.997Z,98.40
2017-09-30T18:50:46.254Z,98.30
2017-09-30T18:53:14.509Z,98.20
2017-09-30T18:55:42.753Z,98.40
2017-09-30T18:58:11.776Z,98.80
2017-09-30T19:00:40.026Z,98.80
2017-09-30T19:03:09.041Z,99.50
2017-09-30T19:05:37.298Z,99.40
2017-09-30T19:08:06.310Z,99.70
2017-09-30T19:10:34.562Z,99.60
2017-09-30T19:13:02.813Z,99.90
2017-09-30T19:15:32.028Z,99.80
2017-09-30T19:18:00.287Z,99.80
2017-09-30T19:20:28.531Z,99.50
2017-09-30T19:22:56.773Z,99.70
2017-09-30T19:25:25.852Z,99.90
2017-09-30T19:27:55.662Z,99.90
2017-09-30T19:30:23.910Z,99.90
2017-09-30T19:32:52.159Z,99.90
2017-09-30T19:35:20.409Z,99.90
2017-09-30T19:37:48.661Z,99.90
2017-09-30T19:40:16.911Z,99.90
2017-09-30T19:42:45.172Z,99.90
2017-09-30T19:45:13.426Z,99.90
2017-09-30T19:47:41.666Z,99.90
2017-09-30T19:50:10.694Z,99.90
2017-09-30T19:52:38.939Z,99.90
2017-09-30T19:55:07.973Z,99.90
2017-09-30T19:57:36.231Z,99.90
2017-09-30T20:00:04.478Z,99.90
2017-09-30T20:02:33.497Z,99.90
2017-09-30T20:05:01.749Z,99.90
2017-09-30T20:07:30.773Z,99.90
2017-09-30T20:09:59.022Z,99.90
2017-09-30T20:12:28.051Z,99.90
2017-09-30T20:14:56.297Z,99.90
2017-09-30T20:17:25.322Z,99.90
2017-09-30T20:19:53.570Z,99.90
2017-09-30T20:22:22.599Z,99.90
2017-09-30T20:24:50.850Z,99.90
2017-09-30T20:27:19.121Z,99.90
2017-09-30T20:29:47.368Z,99.90
2017-09-30T20:32:16.390Z,99.90
2017-09-30T20:34:44.650Z,99.90
2017-09-30T20:37:13.669Z,99.90
2017-09-30T20:39:41.934Z,99.90
2017-09-30T20:42:10.189Z,99.90
2017-09-30T20:44:39.234Z,99.90
2017-09-30T20:47:07.542Z,99.90
2017-09-30T20:49:35.798Z,99.90
2017-09-30T20:52:04.048Z,99.90
2017-09-30T20:54:32.297Z,99.90
2017-09-30T20:57:01.305Z,99.90
2017-09-30T20:59:29.569Z,99.90
2017-09-30T21:01:58.586Z,99.90
2017-09-30T21:04:26.841Z,99.90
2017-09-30T21:06:55.094Z,99.90
2017-09-30T21:09:24.109Z,99.90
2017-09-30T21:11:52.365Z,99.90
2017-09-30T21:14:21.378Z,99.90
2017-09-30T21:16:49.653Z,99.90
2017-09-30T21:19:18.661Z,99.90
2017-09-30T21:21:46.925Z,99.90
2017-09-30T21:24:15.242Z,99.90
2017-09-30T21:26:43.534Z,99.90
2017-09-30T21:29:11.787Z,99.90
2017-09-30T21:31:40.820Z,99.90
2017-09-30T21:34:09.074Z,99.90
2017-09-30T21:36:38.138Z,99.90
2017-09-30T21:39:06.406Z,99.90
2017-09-30T21:41:34.710Z,99.90
2017-09-30T21:44:03.852Z,99.90
2017-09-30T21:46:32.129Z,99.90
2017-09-30T21:49:00.390Z,99.90
2017-09-30T21:51:28.637Z,99.90
2017-09-30T21:53:57.669Z,99.90
2017-09-30T21:56:26.034Z,99.90
2017-09-30T21:58:54.298Z,99.90
2017-09-30T22:01:22.545Z,99.90
2017-09-30T22:03:50.814Z,99.90
2017-09-30T22:06:19.070Z,99.90
2017-09-30T22:08:47.327Z,99.90
2017-09-30T22:11:15.594Z,99.90
2017-09-30T22:13:43.850Z,99.90
2017-09-30T22:16:12.109Z,99.90
2017-09-30T22:18:41.139Z,99.90
2017-09-30T22:21:09.393Z,99.90
2017-09-30T22:23:37.645Z,99.90
2017-09-30T22:26:05.910Z,99.90
2017-09-30T22:28:35.766Z,99.90
2017-09-30T22:31:04.021Z,99.90
2017-09-30T22:33:33.032Z,99.90
2017-09-30T22:36:01.295Z,99.90
2017-09-30T22:38:30.306Z,99.90
2017-09-30T22:40:58.568Z,99.90
2017-09-30T22:43:27.586Z,99.90
2017-09-30T22:45:55.845Z,99.90
2017-09-30T22:48:24.093Z,99.90
2017-09-30T22:50:53.117Z,99.90
2017-09-30T22:53:21.364Z,99.90
2017-09-30T22:55:49.621Z,99.90
2017-09-30T22:58:17.874Z,99.90
2017-09-30T23:00:46.133Z,99.90
2017-09-30T23:03:14.399Z,99.90
2017-09-30T23:05:42.654Z,99.90
2017-09-30T23:08:11.682Z,99.90
2017-09-30T23:10:39.934Z,99.90
2017-09-30T23:13:08.177Z,99.90
2017-09-30T23:15:36.438Z,99.90
2017-09-30T23:18:04.689Z,99.90
2017-09-30T23:20:32.945Z,99.90
2017-09-30T23:23:01.196Z,99.90
2017-09-30T23:25:30.229Z,99.90
2017-09-30T23:27:58.478Z,99.90
2017-09-30T23:30:26.737Z,99.90
2017-09-30T23:32:55.756Z,99.90
2017-09-30T23:35:24.021Z,99.90
2017-09-30T23:37:52.270Z,99.90
2017-09-30T23:40:21.294Z,99.90
2017-09-30T23:42:49.539Z,99.90
2017-09-30T23:45:17.793Z,99.90
2017-09-30T23:47:46.041Z,99.90
2017-09-30T23:50:14.298Z,99.90
2017-09-30T23:52:42.537Z,99.90
2017-09-30T23:55:11.562Z,99.90
2017-09-30T23:57:39.803Z,99.90
